createdAt,value
2022-11-05T00:01:32.780Z,96864.35
2022-11-05T00:04:25.588Z,96867.58
2022-11-05T00:07:21.658Z,96868.56
2022-11-05T00:09:59.974Z,96882.75
2022-11-05T00:12:48.709Z,96894.52
2022-11-05T00:15:38.175Z,96899.42
2022-11-05T00:18:09.508Z,96906.08
2022-11-05T00:20:40.453Z,96907.83
2022-11-05T00:23:29.276Z,96912.13
2022-11-05T00:26:01.986Z,96915.48
2022-11-05T00:28:33.539Z,96913.11
2022-11-05T00:31:09.778Z,96917.08
2022-11-05T00:33:41.972Z,96918.63
2022-11-05T00:36:13.838Z,96923.20
2022-11-05T00:38:44.826Z,96926.34
2022-11-05T00:41:15.652Z,96931.08
2022-11-05T00:44:03.933Z,96939.09
2022-11-05T00:46:34.871Z,96943.36
2022-11-05T00:49:23.238Z,96940.27
2022-11-05T00:52:14.213Z,96947.85
2022-11-05T00:54:47.570Z,96952.91
2022-11-05T00:57:18.450Z,96956.78
2022-11-05T00:59:49.715Z,96963.92
2022-11-05T01:02:20.666Z,96964.30
2022-11-05T01:04:50.172Z,96968.94
2022-11-05T01:07:21.390Z,96966.96
2022-11-05T01:09:52.336Z,96971.05
2022-11-05T01:12:21.871Z,96974.40
2022-11-05T01:14:53.009Z,96979.54
2022-11-05T01:17:24.282Z,96981.15
2022-11-05T01:19:55.538Z,96984.73
2022-11-05T01:22:26.433Z,96984.98
2022-11-05T01:24:58.013Z,96991.24
2022-11-05T01:27:29.079Z,96997.10
2022-11-05T01:29:59.981Z,96998.10
2022-11-05T01:32:31.336Z,96994.19
2022-11-05T01:35:02.485Z,96997.33
2022-11-05T01:37:33.370Z,96997.42
2022-11-05T01:40:04.680Z,97003.12
2022-11-05T01:42:36.102Z,96999.05
2022-11-05T01:45:15.341Z,97004.27
2022-11-05T01:47:52.624Z,97005.77
2022-11-05T01:50:44.315Z,97007.27
2022-11-05T01:53:27.882Z,97012.58
2022-11-05T01:56:03.846Z,97015.52
2022-11-05T01:58:39.208Z,97021.21
2022-11-05T02:01:10.255Z,97022.63
2022-11-05T02:03:43.039Z,97026.95
2022-11-05T02:06:16.053Z,97027.84
2022-11-05T02:08:57.103Z,97030.88
2022-11-05T02:11:28.380Z,97031.33
2022-11-05T02:13:59.469Z,97037.38
2022-11-05T02:16:42.362Z,97039.48
2022-11-05T02:19:40.293Z,97044.48
2022-11-05T02:22:36.461Z,97043.43
2022-11-05T02:25:25.023Z,97042.10
2022-11-05T02:28:21.985Z,97045.53
2022-11-05T02:30:58.345Z,97045.28
2022-11-05T02:33:41.921Z,97045.92
2022-11-05T02:36:29.661Z,97047.61
2022-11-05T02:39:22.401Z,97049.31
2022-11-05T02:42:05.231Z,97053.70
2022-11-05T02:44:44.366Z,97053.34
2022-11-05T02:47:22.250Z,97055.42
2022-11-05T02:50:02.460Z,97066.27
2022-11-05T02:52:38.509Z,97065.73
2022-11-05T02:55:18.192Z,97063.61
2022-11-05T02:57:49.940Z,97067.11
2022-11-05T03:00:44.833Z,97070.86
2022-11-05T03:03:22.520Z,97071.30
2022-11-05T03:06:18.794Z,97070.13
2022-11-05T03:09:01.275Z,97066.59
2022-11-05T03:11:38.067Z,97069.80
2022-11-05T03:14:17.683Z,97073.05
2022-11-05T03:16:54.122Z,97077.42
2022-11-05T03:19:36.043Z,97082.83
2022-11-05T03:22:13.069Z,97087.66
2022-11-05T03:24:50.210Z,97098.00
2022-11-05T03:27:26.497Z,97104.29
2022-11-05T03:30:03.099Z,97112.67
2022-11-05T03:32:38.414Z,97120.88
2022-11-05T03:35:13.575Z,97129.36
2022-11-05T03:37:47.417Z,97134.13
2022-11-05T03:40:19.976Z,97136.40
2022-11-05T03:42:57.846Z,97134.09
2022-11-05T03:45:33.885Z,97141.86
2022-11-05T03:48:08.571Z,97146.55
2022-11-05T03:50:46.531Z,97152.55
2022-11-05T03:53:22.263Z,97159.92
2022-11-05T03:55:59.928Z,97164.83
2022-11-05T03:58:32.205Z,97166.05
2022-11-05T04:01:04.600Z,97166.98
2022-11-05T04:03:37.175Z,97165.20
2022-11-05T04:06:28.311Z,97163.63
2022-11-05T04:09:16.531Z,97166.56
2022-11-05T04:12:04.825Z,97167.48
2022-11-05T04:14:36.016Z,97168.69
2022-11-05T04:17:10.117Z,97168.66
2022-11-05T04:20:08.590Z,97164.58
2022-11-05T04:22:57.231Z,97159.19
2022-11-05T04:25:28.225Z,97160.02
2022-11-05T04:28:01.329Z,97159.39
2022-11-05T04:30:32.154Z,97161.48
2022-11-05T04:33:05.978Z,97165.83
2022-11-05T04:35:38.984Z,97173.75
2022-11-05T04:38:12.760Z,97180.63
2022-11-05T04:40:44.137Z,97190.45
2022-11-05T04:43:17.631Z,97197.35
2022-11-05T04:45:48.951Z,97204.14
2022-11-05T04:48:19.731Z,97204.56
2022-11-05T04:50:50.574Z,97203.87
2022-11-05T04:53:21.333Z,97201.56
2022-11-05T04:55:52.234Z,97197.52
2022-11-05T04:58:23.087Z,97200.08
2022-11-05T05:00:53.996Z,97198.16
2022-11-05T05:03:23.940Z,97194.64
2022-11-05T05:05:53.997Z,97196.48
2022-11-05T05:08:25.411Z,97205.36
2022-11-05T05:10:56.965Z,97208.82
2022-11-05T05:13:28.109Z,97216.08
2022-11-05T05:15:57.305Z,97216.34
2022-11-05T05:18:29.167Z,97219.11
2022-11-05T05:21:19.256Z,97221.20
2022-11-05T05:23:49.443Z,97228.49
2022-11-05T05:26:20.379Z,97230.15
2022-11-05T05:28:51.280Z,97233.77
2022-11-05T05:31:23.045Z,97235.60
2022-11-05T05:33:55.848Z,97238.04
2022-11-05T05:36:27.299Z,97243.11
2022-11-05T05:38:58.512Z,97237.12
2022-11-05T05:41:29.586Z,97239.27
2022-11-05T05:44:00.563Z,97239.43
2022-11-05T05:46:31.538Z,97237.73
2022-11-05T05:49:05.524Z,97245.32
2022-11-05T05:51:44.199Z,97248.14
2022-11-05T05:54:15.725Z,97251.64
2022-11-05T05:56:47.455Z,97249.27
2022-11-05T05:59:18.400Z,97259.52
2022-11-05T06:01:49.380Z,97264.45
2022-11-05T06:04:20.794Z,97267.87
2022-11-05T06:06:51.840Z,97272.85
2022-11-05T06:09:23.179Z,97279.13
2022-11-05T06:11:54.170Z,97285.58
2022-11-05T06:14:25.306Z,97286.25
2022-11-05T06:16:56.410Z,97288.57
2022-11-05T06:19:27.599Z,97288.08
2022-11-05T06:21:57.026Z,97291.70
2022-11-05T06:24:27.927Z,97298.94
2022-11-05T06:26:58.836Z,97297.73
2022-11-05T06:29:29.865Z,97297.66
2022-11-05T06:31:59.367Z,97296.48
2022-11-05T06:34:30.193Z,97299.20
2022-11-05T06:37:01.086Z,97299.40
2022-11-05T06:39:31.886Z,97304.06
2022-11-05T06:42:17.818Z,97306.91
2022-11-05T06:44:49.796Z,97304.66
2022-11-05T06:47:21.080Z,97307.16
2022-11-05T06:49:52.258Z,97304.39
2022-11-05T06:52:23.632Z,97305.84
2022-11-05T06:54:54.543Z,97311.86
2022-11-05T06:57:25.477Z,97313.48
2022-11-05T07:00:01.379Z,97316.85
2022-11-05T07:02:34.251Z,97323.13
2022-11-05T07:05:05.230Z,97331.82
2022-11-05T07:07:36.250Z,97340.23
2022-11-05T07:10:07.072Z,97342.80
2022-11-05T07:12:37.943Z,97344.66
2022-11-05T07:15:11.533Z,97346.04
2022-11-05T07:17:42.842Z,97346.00
2022-11-05T07:20:14.446Z,97351.94
2022-11-05T07:23:01.614Z,97358.30
2022-11-05T07:25:34.102Z,97362.00
2022-11-05T07:28:05.823Z,97365.32
2022-11-05T07:30:37.539Z,97366.27
2022-11-05T07:33:08.830Z,97367.55
2022-11-05T07:35:39.973Z,97375.45
2022-11-05T07:38:09.498Z,97385.23
2022-11-05T07:40:40.253Z,97387.75
2022-11-05T07:43:10.062Z,97393.16
2022-11-05T07:45:41.169Z,97392.41
2022-11-05T07:48:12.439Z,97396.95
2022-11-05T07:50:43.298Z,97396.38
2022-11-05T07:53:15.662Z,97400.85
2022-11-05T07:55:47.385Z,97402.51
2022-11-05T07:58:18.629Z,97399.46
2022-11-05T08:00:49.791Z,97400.02
2022-11-05T08:03:21.352Z,97408.92
2022-11-05T08:05:52.700Z,97415.24
2022-11-05T08:08:23.484Z,97422.05
2022-11-05T08:10:52.878Z,97431.59
2022-11-05T08:13:23.901Z,97432.45
2022-11-05T08:15:57.369Z,97436.79
2022-11-05T08:18:31.845Z,97439.96
2022-11-05T08:21:05.337Z,97445.77
2022-11-05T08:23:36.335Z,97453.61
2022-11-05T08:26:08.091Z,97454.10
2022-11-05T08:28:39.176Z,97460.64
2022-11-05T08:31:10.227Z,97463.77
2022-11-05T08:33:41.202Z,97465.49
2022-11-05T08:36:12.047Z,97467.91
2022-11-05T08:38:42.798Z,97471.59
2022-11-05T08:41:13.586Z,97475.08
2022-11-05T08:43:44.517Z,97475.89
2022-11-05T08:46:15.396Z,97475.23
2022-11-05T08:48:46.122Z,97476.15
2022-11-05T08:51:17.156Z,97475.21
2022-11-05T08:53:48.345Z,97483.00
2022-11-05T08:56:19.602Z,97485.67
2022-11-05T08:58:48.834Z,97486.44
2022-11-05T09:01:19.748Z,97485.64
2022-11-05T09:03:53.180Z,97485.00
2022-11-05T09:06:24.029Z,97484.83
2022-11-05T09:08:55.073Z,97483.04
2022-11-05T09:11:37.750Z,97487.59
2022-11-05T09:14:17.027Z,97490.80
2022-11-05T09:16:48.072Z,97493.73
2022-11-05T09:19:19.134Z,97501.47
2022-11-05T09:21:48.509Z,97506.23
2022-11-05T09:24:19.857Z,97511.84
2022-11-05T09:26:54.483Z,97519.06
2022-11-05T09:29:25.757Z,97521.05
2022-11-05T09:31:56.821Z,97520.27
2022-11-05T09:34:28.039Z,97524.45
2022-11-05T09:36:59.179Z,97526.86
2022-11-05T09:39:28.455Z,97533.86
2022-11-05T09:42:06.143Z,97531.95
2022-11-05T09:44:43.822Z,97532.30
2022-11-05T09:47:20.434Z,97531.64
2022-11-05T09:49:53.330Z,97535.77
2022-11-05T09:52:29.494Z,97543.04
2022-11-05T09:55:00.936Z,97542.04
2022-11-05T09:57:37.854Z,97537.73
2022-11-05T10:00:16.622Z,97533.66
2022-11-05T10:02:52.543Z,97541.21
2022-11-05T10:05:24.523Z,97534.93
2022-11-05T10:07:58.756Z,97537.77
2022-11-05T10:10:40.516Z,97541.69
2022-11-05T10:13:23.197Z,97547.94
2022-11-05T10:16:02.846Z,97549.74
2022-11-05T10:18:37.549Z,97541.18
2022-11-05T10:21:14.733Z,97544.17
2022-11-05T10:23:46.663Z,97545.23
2022-11-05T10:26:23.098Z,97548.07
2022-11-05T10:28:54.719Z,97548.41
2022-11-05T10:31:31.485Z,97556.75
2022-11-05T10:34:08.026Z,97561.98
2022-11-05T10:36:40.774Z,97561.73
2022-11-05T10:39:15.798Z,97563.11
2022-11-05T10:42:09.197Z,97572.02
2022-11-05T10:44:45.328Z,97571.44
2022-11-05T10:47:33.620Z,97572.17
2022-11-05T10:50:11.262Z,97569.61
2022-11-05T10:52:52.715Z,97566.25
2022-11-05T10:55:26.646Z,97571.85
2022-11-05T10:58:09.240Z,97573.20
2022-11-05T11:00:41.117Z,97580.46
2022-11-05T11:03:34.346Z,97580.33
2022-11-05T11:06:07.816Z,97581.70
2022-11-05T11:08:39.645Z,97580.90
2022-11-05T11:11:14.681Z,97582.25
2022-11-05T11:14:02.604Z,97584.86
2022-11-05T11:16:38.306Z,97585.02
2022-11-05T11:19:27.297Z,97581.36
2022-11-05T11:25:02.278Z,97586.05
2022-11-05T11:27:36.501Z,97588.16
2022-11-05T11:30:18.135Z,97589.88
2022-11-05T11:32:50.456Z,97598.52
2022-11-05T11:35:26.813Z,97599.98
2022-11-05T11:38:01.151Z,97607.80
2022-11-05T11:40:34.837Z,97605.10
2022-11-05T11:43:15.408Z,97609.88
2022-11-05T11:45:50.924Z,97612.02
2022-11-05T11:48:26.521Z,97614.59
2022-11-05T11:50:59.040Z,97617.41
2022-11-05T11:53:37.084Z,97617.02
2022-11-05T11:56:18.198Z,97618.05
2022-11-05T11:58:51.129Z,97618.73
2022-11-05T12:01:44.629Z,97614.70
2022-11-05T12:04:36.730Z,97616.05
2022-11-05T12:07:17.782Z,97614.40
2022-11-05T12:10:02.094Z,97608.42
2022-11-05T12:12:40.733Z,97610.64
2022-11-05T12:15:28.693Z,97612.81
2022-11-05T12:18:03.691Z,97619.42
2022-11-05T12:20:57.837Z,97620.79
2022-11-05T12:23:52.681Z,97624.68
2022-11-05T12:26:35.864Z,97624.40
2022-11-05T12:29:36.901Z,97629.15
2022-11-05T12:32:31.959Z,97624.73
2022-11-05T12:35:15.374Z,97626.77
2022-11-05T12:37:54.613Z,97628.46
2022-11-05T12:40:43.657Z,97636.70
2022-11-05T12:43:24.779Z,97636.42
2022-11-05T12:46:02.509Z,97635.11
2022-11-05T12:48:48.821Z,97632.69
2022-11-05T12:51:32.257Z,97634.90
2022-11-05T12:54:19.096Z,97639.36
2022-11-05T12:56:54.547Z,97638.11
2022-11-05T12:59:29.854Z,97640.84
2022-11-05T13:02:09.704Z,97639.92
2022-11-05T13:04:45.425Z,97636.86
2022-11-05T13:07:23.084Z,97643.71
2022-11-05T13:09:59.423Z,97639.86
2022-11-05T13:12:34.381Z,97635.77
2022-11-05T13:15:16.480Z,97634.84
2022-11-05T13:17:55.096Z,97636.81
2022-11-05T13:20:29.858Z,97640.90
2022-11-05T13:23:07.136Z,97643.06
2022-11-05T13:25:46.211Z,97650.49
2022-11-05T13:28:22.539Z,97648.98
2022-11-05T13:30:56.230Z,97657.07
2022-11-05T13:33:33.076Z,97658.90
2022-11-05T13:36:23.743Z,97660.88
2022-11-05T13:39:01.389Z,97662.89
2022-11-05T13:41:43.060Z,97665.27
2022-11-05T13:44:35.633Z,97668.67
2022-11-05T13:47:23.820Z,97670.74
2022-11-05T13:50:14.594Z,97675.13
2022-11-05T13:53:14.347Z,97680.56
2022-11-05T13:56:02.914Z,97681.17
2022-11-05T13:59:04.255Z,97678.45
2022-11-05T14:01:52.061Z,97680.88
2022-11-05T14:04:32.394Z,97682.15
2022-11-05T14:07:17.772Z,97684.98
2022-11-05T14:09:53.325Z,97688.64
2022-11-05T14:12:28.949Z,97687.56
2022-11-05T14:15:05.427Z,97696.73
2022-11-05T14:17:57.576Z,97699.23
2022-11-05T14:21:01.616Z,97706.23
2022-11-05T14:23:52.612Z,97699.52
2022-11-05T14:26:26.343Z,97702.26
2022-11-05T14:29:22.083Z,97699.86
2022-11-05T14:32:09.223Z,97702.99
2022-11-05T14:34:47.609Z,97703.24
2022-11-05T14:37:37.609Z,97708.61
2022-11-05T14:40:34.177Z,97711.90
2022-11-05T14:43:09.558Z,97714.38
2022-11-05T14:45:43.035Z,97714.88
2022-11-05T14:48:33.127Z,97720.48
2022-11-05T14:51:17.980Z,97725.90
2022-11-05T14:53:49.534Z,97728.61
2022-11-05T14:56:21.387Z,97724.44
2022-11-05T14:59:12.515Z,97726.77
2022-11-05T15:01:59.028Z,97729.45
2022-11-05T15:04:31.895Z,97730.62
2022-11-05T15:07:37.560Z,97735.23
2022-11-05T15:10:15.328Z,97737.77
2022-11-05T15:12:50.083Z,97742.83
2022-11-05T15:15:25.316Z,97743.85
2022-11-05T15:18:03.809Z,97747.30
2022-11-05T15:20:40.833Z,97746.59
2022-11-05T15:23:16.568Z,97748.72
2022-11-05T15:25:54.329Z,97750.86
2022-11-05T15:28:28.254Z,97755.64
2022-11-05T15:31:02.293Z,97764.52
2022-11-05T15:33:33.912Z,97770.23
2022-11-05T15:36:21.847Z,97773.11
2022-11-05T15:39:22.943Z,97775.50
2022-11-05T15:41:44.145Z,97778.29
2022-11-05T15:44:28.389Z,97776.69
2022-11-05T15:47:17.552Z,97785.62
2022-11-05T15:49:50.829Z,97784.90
2022-11-05T15:52:24.872Z,97786.27
2022-11-05T15:55:20.773Z,97781.95
2022-11-05T15:57:56.805Z,97786.67
2022-11-05T16:00:30.108Z,97788.63
2022-11-05T16:03:04.527Z,97795.55
2022-11-05T16:05:42.930Z,97796.61
2022-11-05T16:08:20.150Z,97802.16
2022-11-05T16:10:51.109Z,97805.27
2022-11-05T16:13:31.575Z,97808.58
2022-11-05T16:16:06.010Z,97809.41
2022-11-05T16:18:38.845Z,97816.16
2022-11-05T16:21:12.095Z,97819.23
2022-11-05T16:23:46.083Z,97824.92
2022-11-05T16:29:31.323Z,97831.88
2022-11-05T16:32:05.069Z,97828.80
2022-11-05T16:34:40.118Z,97832.73
2022-11-05T16:37:14.967Z,97832.20
2022-11-05T16:39:45.956Z,97837.65
2022-11-05T16:42:38.811Z,97842.33
2022-11-05T16:45:14.934Z,97845.11
2022-11-05T16:47:46.597Z,97854.33
2022-11-05T16:50:25.329Z,97853.55
2022-11-05T16:52:56.137Z,97855.71
2022-11-05T16:55:25.762Z,97857.38
2022-11-05T16:57:57.391Z,97858.51
2022-11-05T17:00:28.835Z,97861.10
2022-11-05T17:02:58.431Z,97864.48
2022-11-05T17:05:32.235Z,97867.11
2022-11-05T17:08:03.594Z,97865.95
2022-11-05T17:10:34.556Z,97862.04
2022-11-05T17:13:05.582Z,97860.77
2022-11-05T17:15:36.071Z,97859.00
2022-11-05T17:18:07.625Z,97862.23
2022-11-05T17:20:41.602Z,97870.16
2022-11-05T17:23:13.889Z,97874.71
2022-11-05T17:25:49.058Z,97874.77
2022-11-05T17:28:20.839Z,97876.57
2022-11-05T17:30:53.363Z,97873.79
2022-11-05T17:33:25.124Z,97871.23
2022-11-05T17:35:56.685Z,97874.38
2022-11-05T17:38:28.126Z,97879.02
2022-11-05T17:40:59.192Z,97882.22
2022-11-05T17:43:28.920Z,97884.50
2022-11-05T17:46:04.259Z,97888.31
2022-11-05T17:48:35.822Z,97889.21
2022-11-05T17:51:09.639Z,97892.17
2022-11-05T17:53:40.861Z,97891.60
2022-11-05T17:56:13.277Z,97893.23
2022-11-05T17:58:44.341Z,97898.52
2022-11-05T18:01:27.853Z,97902.34
2022-11-05T18:04:03.761Z,97901.67
2022-11-05T18:06:39.959Z,97902.08
2022-11-05T18:09:11.991Z,97901.70
2022-11-05T18:11:44.073Z,97904.71
2022-11-05T18:14:22.798Z,97902.02
2022-11-05T18:16:55.450Z,97907.19
2022-11-05T18:19:26.442Z,97906.30
2022-11-05T18:21:57.347Z,97908.11
2022-11-05T18:24:28.192Z,97910.69
2022-11-05T18:26:59.007Z,97912.26
2022-11-05T18:29:29.757Z,97917.15
2022-11-05T18:32:00.710Z,97920.98
2022-11-05T18:34:31.618Z,97928.41
2022-11-05T18:37:02.530Z,97928.72
2022-11-05T18:39:33.458Z,97937.02
2022-11-05T18:42:04.578Z,97939.25
2022-11-05T18:44:39.215Z,97949.33
2022-11-05T18:47:10.519Z,97952.38
2022-11-05T18:49:41.586Z,97954.29
2022-11-05T18:52:12.822Z,97959.36
2022-11-05T18:54:42.375Z,97963.66
2022-11-05T18:57:13.053Z,97963.73
2022-11-05T18:59:46.823Z,97969.86
2022-11-05T19:02:18.563Z,97972.67
2022-11-05T19:05:14.061Z,97967.75
2022-11-05T19:07:41.347Z,97978.45
2022-11-05T19:10:12.313Z,97981.98
2022-11-05T19:12:43.380Z,97984.31
2022-11-05T19:15:14.677Z,97986.07
2022-11-05T19:17:45.882Z,97986.10
2022-11-05T19:20:17.277Z,97981.13
2022-11-05T19:22:48.480Z,97986.11
2022-11-05T19:25:19.420Z,97983.23
2022-11-05T19:27:50.822Z,97979.20
2022-11-05T19:30:22.030Z,97981.52
2022-11-05T19:32:53.163Z,97982.21
2022-11-05T19:35:24.332Z,97982.96
2022-11-05T19:37:56.269Z,97982.71
2022-11-05T19:40:27.518Z,97985.66
2022-11-05T19:42:57.033Z,97987.10
2022-11-05T19:45:44.009Z,97989.34
2022-11-05T19:48:19.460Z,97993.02
2022-11-05T19:50:50.687Z,97994.13
2022-11-05T19:53:21.598Z,97999.61
2022-11-05T19:55:52.491Z,98002.52
2022-11-05T19:58:23.391Z,98004.91
2022-11-05T20:00:55.957Z,98007.66
2022-11-05T20:03:26.987Z,98006.33
2022-11-05T20:06:02.083Z,98005.41
2022-11-05T20:08:43.277Z,98012.15
2022-11-05T20:11:24.422Z,98012.63
2022-11-05T20:13:55.588Z,98008.19
2022-11-05T20:16:28.924Z,98017.65
2022-11-05T20:19:00.047Z,98022.64
2022-11-05T20:21:29.547Z,98021.39
2022-11-05T20:24:00.782Z,98022.69
2022-11-05T20:26:30.441Z,98025.54
2022-11-05T20:29:01.431Z,98020.55
2022-11-05T20:31:33.101Z,98022.13
2022-11-05T20:34:04.318Z,98024.48
2022-11-05T20:36:35.514Z,98021.23
2022-11-05T20:39:06.625Z,98020.73
2022-11-05T20:41:37.600Z,98027.96
2022-11-05T20:44:08.742Z,98027.58
2022-11-05T20:46:39.549Z,98029.39
2022-11-05T20:49:10.418Z,98027.36
2022-11-05T20:51:41.579Z,98032.04
2022-11-05T20:54:13.101Z,98026.48
2022-11-05T20:56:44.572Z,98024.26
2022-11-05T20:59:15.360Z,98023.49
2022-11-05T21:01:46.738Z,98020.70
2022-11-05T21:04:17.875Z,98024.34
2022-11-05T21:06:49.149Z,98028.47
2022-11-05T21:09:18.808Z,98027.63
2022-11-05T21:12:07.744Z,98028.50
2022-11-05T21:14:39.034Z,98030.85
2022-11-05T21:17:11.592Z,98033.27
2022-11-05T21:19:42.749Z,98039.83
2022-11-05T21:22:16.056Z,98045.27
2022-11-05T21:24:47.170Z,98044.02
2022-11-05T21:27:16.691Z,98049.13
2022-11-05T21:29:47.660Z,98047.95
2022-11-05T21:32:18.501Z,98050.20
2022-11-05T21:34:49.585Z,98045.90
2022-11-05T21:37:21.076Z,98048.77
2022-11-05T21:39:52.585Z,98045.45
2022-11-05T21:42:23.683Z,98040.65
2022-11-05T21:45:00.072Z,98042.73
2022-11-05T21:47:31.719Z,98039.01
2022-11-05T21:50:01.266Z,98043.41
2022-11-05T21:52:49.879Z,98042.73
2022-11-05T21:55:38.815Z,98039.24
2022-11-05T21:58:32.685Z,98040.08
2022-11-05T22:01:04.780Z,98041.64
2022-11-05T22:03:35.687Z,98044.06
2022-11-05T22:06:06.933Z,98044.50
2022-11-05T22:08:37.886Z,98043.70
2022-11-05T22:11:10.360Z,98042.21
2022-11-05T22:13:41.546Z,98041.34
2022-11-05T22:16:12.695Z,98041.60
2022-11-05T22:18:43.725Z,98043.15
2022-11-05T22:21:19.340Z,98046.79
2022-11-05T22:23:50.738Z,98046.05
2022-11-05T22:26:22.082Z,98052.10
2022-11-05T22:28:53.978Z,98051.88
2022-11-05T22:31:25.287Z,98051.66
2022-11-05T22:33:56.150Z,98055.22
2022-11-05T22:36:27.550Z,98053.44
2022-11-05T22:38:58.787Z,98049.45
2022-11-05T22:41:29.724Z,98047.89
2022-11-05T22:44:00.995Z,98048.77
2022-11-05T22:46:32.174Z,98050.30
2022-11-05T22:49:03.567Z,98052.56
2022-11-05T22:51:37.721Z,98049.05
2022-11-05T22:54:09.598Z,98047.65
2022-11-05T22:56:42.807Z,98047.89
2022-11-05T22:59:16.320Z,98048.41
2022-11-05T23:01:47.916Z,98047.34
2022-11-05T23:04:22.188Z,98043.77
2022-11-05T23:07:11.189Z,98043.58
2022-11-05T23:09:59.850Z,98043.88
2022-11-05T23:12:33.221Z,98050.42
2022-11-05T23:15:06.429Z,98054.97
2022-11-05T23:17:55.072Z,98058.95
2022-11-05T23:20:43.697Z,98058.33
2022-11-05T23:23:33.049Z,98055.09
2022-11-05T23:26:24.735Z,98051.91
2022-11-05T23:28:55.782Z,98057.27
2022-11-05T23:31:52.854Z,98063.20
2022-11-05T23:34:23.739Z,98065.03
2022-11-05T23:37:11.897Z,98067.66
2022-11-05T23:39:43.111Z,98070.27
2022-11-05T23:42:32.167Z,98072.30
2022-11-05T23:45:25.364Z,98072.21
2022-11-05T23:48:14.174Z,98074.88
2022-11-05T23:50:46.215Z,98081.13
2022-11-05T23:53:17.285Z,98077.91
2022-11-05T23:55:48.302Z,98078.06
2022-11-05T23:58:20.081Z,98077.11
